createdAt,value
2023-05-15T00:00:45.126Z,3.80
2023-05-15T00:03:12.555Z,3.53
2023-05-15T00:05:39.834Z,3.50
2023-05-15T00:08:06.753Z,4.13
2023-05-15T00:10:33.677Z,4.07
2023-05-15T00:13:00.449Z,4.03
2023-05-15T00:15:27.665Z,4.50
2023-05-15T00:17:54.712Z,3.47
2023-05-15T00:20:21.639Z,3.90
2023-05-15T00:22:48.593Z,3.80
2023-05-15T00:25:15.523Z,3.47
2023-05-15T00:27:42.469Z,4.07
2023-05-15T00:30:09.532Z,3.83
2023-05-15T00:32:36.484Z,3.70
2023-05-15T00:35:03.410Z,3.60
2023-05-15T00:37:34.992Z,3.50
2023-05-15T00:40:05.136Z,4.03
2023-05-15T00:42:32.129Z,3.93
2023-05-15T00:45:00.919Z,3.40
2023-05-15T00:47:28.336Z,3.83
2023-05-15T00:49:55.814Z,3.53
2023-05-15T00:52:23.228Z,3.40
2023-05-15T00:54:50.337Z,3.73
2023-05-15T00:57:17.828Z,3.87
2023-05-15T00:59:45.626Z,3.87
2023-05-15T01:02:13.779Z,3.67
2023-05-15T01:04:40.836Z,3.93
2023-05-15T01:07:08.297Z,3.67
2023-05-15T01:09:36.695Z,3.27
2023-05-15T01:12:05.224Z,3.57
2023-05-15T01:14:32.078Z,3.70
2023-05-15T01:16:59.412Z,3.67
2023-05-15T01:19:26.754Z,3.97
2023-05-15T01:22:09.992Z,3.53
2023-05-15T01:24:43.041Z,4.23
2023-05-15T01:27:18.702Z,3.97
2023-05-15T01:29:48.915Z,4.00
2023-05-15T01:32:20.194Z,3.73
2023-05-15T01:34:47.082Z,4.13
2023-05-15T01:37:15.312Z,3.97
2023-05-15T01:39:43.223Z,4.33
2023-05-15T01:42:11.048Z,4.10
2023-05-15T01:44:40.778Z,4.13
2023-05-15T01:47:10.626Z,4.17
2023-05-15T01:49:38.546Z,4.10
2023-05-15T01:52:32.836Z,4.23
2023-05-15T01:55:01.153Z,3.97
2023-05-15T01:57:28.807Z,4.40
2023-05-15T01:59:56.810Z,3.63
2023-05-15T02:02:24.044Z,4.83
2023-05-15T02:04:54.946Z,4.00
2023-05-15T02:07:22.142Z,4.10
2023-05-15T02:09:49.634Z,4.20
2023-05-15T02:12:16.588Z,4.70
2023-05-15T02:14:44.142Z,4.80
2023-05-15T02:17:12.196Z,4.33
2023-05-15T02:19:39.097Z,3.80
2023-05-15T02:22:06.138Z,4.13
2023-05-15T02:24:35.003Z,4.07
2023-05-15T02:27:08.652Z,4.13
2023-05-15T02:29:41.689Z,3.93
2023-05-15T02:32:19.047Z,3.97
2023-05-15T02:34:48.794Z,3.73
2023-05-15T02:37:18.469Z,4.27
2023-05-15T02:39:46.306Z,4.30
2023-05-15T02:42:14.817Z,3.83
2023-05-15T02:44:43.634Z,3.80
2023-05-15T02:47:11.028Z,4.23
2023-05-15T02:49:39.880Z,3.77
2023-05-15T02:52:07.080Z,3.80
2023-05-15T02:54:33.905Z,3.77
2023-05-15T02:57:00.807Z,3.80
2023-05-15T02:59:27.712Z,3.77
2023-05-15T03:01:54.774Z,3.57
2023-05-15T03:04:21.578Z,3.70
2023-05-15T03:06:48.470Z,3.33
2023-05-15T03:09:15.264Z,3.80
2023-05-15T03:11:42.328Z,4.23
2023-05-15T03:14:09.201Z,3.50
2023-05-15T03:16:37.280Z,4.20
2023-05-15T03:19:04.203Z,4.43
2023-05-15T03:21:31.114Z,4.57
2023-05-15T03:23:58.032Z,5.20
2023-05-15T03:26:24.900Z,5.00
2023-05-15T03:28:51.781Z,4.67
2023-05-15T03:31:18.785Z,5.30
2023-05-15T03:33:50.112Z,15.43
2023-05-15T03:36:16.994Z,28.83
2023-05-15T03:38:44.540Z,33.77
2023-05-15T03:41:11.971Z,29.63
2023-05-15T03:43:38.913Z,16.23
2023-05-15T03:46:05.880Z,18.27
2023-05-15T03:48:32.786Z,45.53
2023-05-15T03:50:59.661Z,20.77
2023-05-15T03:53:26.535Z,14.10
2023-05-15T03:55:53.439Z,8.90
2023-05-15T03:58:20.257Z,6.07
2023-05-15T04:00:47.057Z,8.30
2023-05-15T04:03:14.863Z,9.13
2023-05-15T04:05:41.821Z,13.17
2023-05-15T04:08:10.292Z,10.50
2023-05-15T04:10:37.117Z,9.60
2023-05-15T04:13:03.973Z,7.13
2023-05-15T04:15:30.757Z,6.40
2023-05-15T04:17:57.765Z,7.20
2023-05-15T04:20:25.378Z,6.43
2023-05-15T04:22:52.723Z,6.50
2023-05-15T04:25:20.602Z,5.73
2023-05-15T04:27:47.565Z,6.80
2023-05-15T04:30:14.412Z,7.00
2023-05-15T04:32:41.543Z,27.50
2023-05-15T04:35:13.674Z,14.37
2023-05-15T04:37:41.563Z,5.70
2023-05-15T04:40:09.316Z,6.80
2023-05-15T04:42:37.682Z,5.17
2023-05-15T04:45:05.959Z,5.33
2023-05-15T04:47:32.837Z,5.30
2023-05-15T04:49:59.712Z,5.60
2023-05-15T04:52:27.226Z,5.40
2023-05-15T04:54:55.982Z,5.90
2023-05-15T04:57:23.500Z,5.83
2023-05-15T04:59:50.538Z,5.70
2023-05-15T05:02:20.743Z,5.63
2023-05-15T05:04:47.781Z,6.60
2023-05-15T05:07:14.656Z,6.33
2023-05-15T05:09:41.617Z,6.33
2023-05-15T05:12:09.450Z,6.20
2023-05-15T05:14:36.686Z,6.83
2023-05-15T05:17:03.718Z,5.80
2023-05-15T05:19:30.737Z,6.13
2023-05-15T05:21:58.662Z,5.77
2023-05-15T05:24:25.505Z,6.27
2023-05-15T05:26:52.434Z,6.63
2023-05-15T05:29:19.206Z,6.37
2023-05-15T05:31:46.983Z,6.70
2023-05-15T05:34:13.947Z,7.00
2023-05-15T05:36:41.185Z,8.57
2023-05-15T05:39:07.996Z,12.47
2023-05-15T05:41:35.058Z,8.60
2023-05-15T05:44:02.025Z,6.70
2023-05-15T05:46:29.067Z,7.67
2023-05-15T05:48:56.062Z,6.43
2023-05-15T05:51:23.147Z,7.60
2023-05-15T05:53:50.026Z,7.37
2023-05-15T05:56:16.987Z,8.30
2023-05-15T05:58:43.812Z,7.10
2023-05-15T06:01:10.733Z,6.83
2023-05-15T06:03:38.886Z,7.23
2023-05-15T06:06:06.107Z,7.37
2023-05-15T06:08:33.150Z,6.43
2023-05-15T06:10:59.986Z,7.00
2023-05-15T06:13:27.123Z,7.80
2023-05-15T06:15:53.928Z,7.33
2023-05-15T06:18:21.399Z,8.10
2023-05-15T06:20:48.274Z,8.60
2023-05-15T06:23:15.202Z,7.83
2023-05-15T06:25:42.070Z,7.57
2023-05-15T06:28:08.938Z,7.70
2023-05-15T06:30:35.778Z,8.17
2023-05-15T06:33:02.703Z,8.27
2023-05-15T06:35:29.573Z,8.60
2023-05-15T06:37:58.542Z,8.03
2023-05-15T06:40:25.778Z,8.77
2023-05-15T06:42:52.859Z,8.70
2023-05-15T06:45:19.741Z,7.93
2023-05-15T06:47:46.630Z,7.77
2023-05-15T06:50:13.423Z,7.53
2023-05-15T06:52:40.575Z,9.40
2023-05-15T06:55:07.580Z,8.40
2023-05-15T06:57:34.822Z,8.93
2023-05-15T07:00:01.602Z,8.90
2023-05-15T07:02:28.527Z,8.10
2023-05-15T07:04:55.450Z,9.17
2023-05-15T07:07:22.345Z,7.83
2023-05-15T07:09:50.502Z,7.60
2023-05-15T07:12:17.483Z,8.03
2023-05-15T07:14:44.278Z,7.47
2023-05-15T07:17:11.285Z,8.53
2023-05-15T07:19:38.169Z,8.23
2023-05-15T07:22:05.215Z,8.00
2023-05-15T07:24:32.044Z,7.70
2023-05-15T07:26:59.424Z,8.90
2023-05-15T07:29:26.613Z,7.53
2023-05-15T07:31:53.701Z,8.00
2023-05-15T07:34:20.970Z,7.07
2023-05-15T07:36:47.761Z,7.27
2023-05-15T07:39:14.714Z,8.13
2023-05-15T07:41:41.549Z,8.03
2023-05-15T07:44:08.565Z,6.40
2023-05-15T07:46:35.876Z,6.00
2023-05-15T07:49:02.768Z,6.10
2023-05-15T07:51:29.745Z,5.17
2023-05-15T07:53:56.652Z,4.80
2023-05-15T07:56:23.589Z,5.10
2023-05-15T07:58:50.637Z,4.97
2023-05-15T08:01:17.593Z,4.90
2023-05-15T08:03:44.534Z,4.20
2023-05-15T08:06:11.559Z,4.87
2023-05-15T08:08:38.334Z,4.50
2023-05-15T08:11:05.231Z,4.50
2023-05-15T08:13:32.363Z,4.27
2023-05-15T08:15:59.272Z,4.60
2023-05-15T08:18:26.177Z,4.70
2023-05-15T08:20:53.077Z,4.87
2023-05-15T08:23:19.995Z,4.47
2023-05-15T08:25:46.770Z,4.30
2023-05-15T08:28:13.737Z,4.67
2023-05-15T08:30:40.612Z,4.40
2023-05-15T08:33:07.676Z,4.70
2023-05-15T08:35:34.814Z,4.87
2023-05-15T08:38:01.872Z,5.33
2023-05-15T08:43:03.438Z,5.03
2023-05-15T08:45:30.833Z,5.00
2023-05-15T08:47:58.611Z,4.60
2023-05-15T08:50:27.331Z,5.40
2023-05-15T08:52:58.494Z,4.50
2023-05-15T08:55:25.747Z,4.57
2023-05-15T08:57:54.219Z,4.67
2023-05-15T09:00:22.288Z,4.23
2023-05-15T09:02:49.319Z,4.00
2023-05-15T09:05:16.833Z,3.43
2023-05-15T09:07:45.169Z,3.30
2023-05-15T09:10:13.258Z,3.60
2023-05-15T09:12:43.441Z,2.70
2023-05-15T09:15:22.652Z,3.00
2023-05-15T09:17:50.779Z,2.63
2023-05-15T09:20:34.094Z,3.00
2023-05-15T09:23:02.426Z,2.27
2023-05-15T09:25:37.738Z,2.60
2023-05-15T09:28:05.315Z,2.60
2023-05-15T09:30:32.198Z,2.70
2023-05-15T09:33:00.661Z,2.63
2023-05-15T09:35:34.522Z,2.93
2023-05-15T09:38:02.564Z,3.50
2023-05-15T09:40:30.885Z,3.27
2023-05-15T09:42:58.518Z,3.07
2023-05-15T09:45:27.295Z,3.40
2023-05-15T09:47:54.688Z,3.63
2023-05-15T09:50:25.721Z,3.50
2023-05-15T09:52:52.673Z,4.30
2023-05-15T09:55:20.153Z,4.37
2023-05-15T09:58:06.673Z,4.87
2023-05-15T10:00:34.808Z,4.93
2023-05-15T10:03:02.736Z,5.67
2023-05-15T10:05:42.576Z,5.97
2023-05-15T10:08:10.990Z,5.97
2023-05-15T10:10:38.775Z,6.20
2023-05-15T10:13:07.271Z,5.97
2023-05-15T10:15:34.452Z,6.37
2023-05-15T10:18:01.712Z,6.13
2023-05-15T10:20:28.722Z,6.83
2023-05-15T10:22:56.638Z,7.03
2023-05-15T10:25:23.592Z,8.30
2023-05-15T10:27:51.491Z,7.50
2023-05-15T10:30:19.714Z,9.23
2023-05-15T10:32:46.693Z,8.50
2023-05-15T10:35:13.619Z,9.10
2023-05-15T10:37:40.877Z,9.27
2023-05-15T10:40:10.009Z,11.83
2023-05-15T10:42:37.751Z,11.77
2023-05-15T10:45:05.867Z,10.30
2023-05-15T10:47:33.650Z,10.23
2023-05-15T10:50:00.764Z,11.07
2023-05-15T10:52:27.576Z,11.00
2023-05-15T10:54:54.896Z,12.50
2023-05-15T10:57:22.347Z,13.00
2023-05-15T10:59:49.368Z,9.47
2023-05-15T11:02:27.348Z,8.77
2023-05-15T11:04:55.280Z,10.63
2023-05-15T11:07:22.173Z,11.23
2023-05-15T11:09:49.032Z,10.13
2023-05-15T11:12:16.056Z,10.57
2023-05-15T11:14:44.193Z,9.40
2023-05-15T11:17:17.904Z,9.43
2023-05-15T11:19:53.832Z,7.50
2023-05-15T11:22:28.377Z,8.17
2023-05-15T11:24:58.278Z,8.60
2023-05-15T11:27:39.082Z,7.90
2023-05-15T11:30:10.547Z,7.77
2023-05-15T11:32:43.575Z,7.13
2023-05-15T11:35:11.769Z,6.10
2023-05-15T11:37:42.522Z,6.57
2023-05-15T11:40:13.431Z,5.97
2023-05-15T11:42:40.876Z,5.47
2023-05-15T11:45:11.049Z,5.70
2023-05-15T11:47:38.045Z,5.13
2023-05-15T11:50:06.873Z,4.70
2023-05-15T11:52:33.896Z,5.33
2023-05-15T11:55:01.173Z,5.67
2023-05-15T11:57:28.213Z,5.30
2023-05-15T11:59:56.155Z,5.40
2023-05-15T12:02:41.915Z,5.23
2023-05-15T12:05:09.099Z,5.30
2023-05-15T12:07:41.161Z,4.80
2023-05-15T12:10:10.356Z,5.03
2023-05-15T12:12:39.636Z,4.80
2023-05-15T12:15:08.706Z,5.07
2023-05-15T12:17:36.775Z,4.83
2023-05-15T12:20:04.955Z,3.83
2023-05-15T12:22:38.475Z,3.80
2023-05-15T12:25:07.105Z,4.00
2023-05-15T12:27:34.443Z,3.73
2023-05-15T12:30:01.943Z,3.70
2023-05-15T12:32:30.662Z,3.80
2023-05-15T12:34:57.589Z,3.97
2023-05-15T12:37:24.369Z,4.60
2023-05-15T12:39:52.097Z,3.00
2023-05-15T12:42:19.030Z,2.73
2023-05-15T12:44:45.808Z,2.00
2023-05-15T12:47:16.082Z,1.77
2023-05-15T12:49:43.117Z,1.77
2023-05-15T12:52:10.521Z,2.30
2023-05-15T12:54:43.530Z,2.27
2023-05-15T12:57:11.482Z,1.70
2023-05-15T12:59:39.057Z,2.40
2023-05-15T13:02:09.402Z,2.37
2023-05-15T13:04:36.313Z,1.83
2023-05-15T13:07:03.393Z,2.00
2023-05-15T13:09:30.791Z,2.10
2023-05-15T13:11:57.624Z,2.20
2023-05-15T13:14:27.439Z,2.20
2023-05-15T13:16:54.565Z,1.40
2023-05-15T13:19:21.611Z,1.83
2023-05-15T13:21:51.045Z,1.57
2023-05-15T13:24:17.828Z,1.90
2023-05-15T13:26:44.775Z,1.10
2023-05-15T13:29:11.620Z,1.70
2023-05-15T13:31:38.472Z,1.40
2023-05-15T13:34:05.386Z,1.07
2023-05-15T13:36:32.289Z,1.20
2023-05-15T13:38:59.140Z,0.87
2023-05-15T13:41:26.541Z,1.20
2023-05-15T13:43:53.438Z,1.10
2023-05-15T13:46:20.286Z,1.13
2023-05-15T13:48:47.296Z,0.80
2023-05-15T13:51:14.165Z,1.00
2023-05-15T13:53:40.967Z,1.10
2023-05-15T13:56:07.918Z,1.17
2023-05-15T13:58:34.858Z,1.03
2023-05-15T14:01:03.617Z,1.27
2023-05-15T14:03:31.102Z,0.80
2023-05-15T14:05:58.013Z,0.60
2023-05-15T14:08:24.923Z,0.70
2023-05-15T14:10:51.953Z,0.60
2023-05-15T14:13:18.955Z,0.70
2023-05-15T14:15:45.742Z,0.50
2023-05-15T14:18:12.654Z,0.47
2023-05-15T14:20:39.564Z,0.60
2023-05-15T14:23:06.378Z,0.50
2023-05-15T14:25:33.275Z,0.53
2023-05-15T14:28:00.077Z,0.60
2023-05-15T14:30:27.249Z,0.70
2023-05-15T14:32:54.324Z,0.73
2023-05-15T14:35:21.287Z,1.10
2023-05-15T14:37:48.097Z,1.00
2023-05-15T14:40:15.118Z,0.93
2023-05-15T14:42:41.986Z,2.27
2023-05-15T14:45:09.172Z,1.50
2023-05-15T14:47:36.071Z,1.23
2023-05-15T14:50:03.058Z,1.30
2023-05-15T14:52:29.924Z,1.80
2023-05-15T14:55:08.622Z,1.70
2023-05-15T14:57:37.158Z,1.13
2023-05-15T15:00:06.382Z,1.40
2023-05-15T15:02:33.594Z,1.93
2023-05-15T15:05:00.623Z,1.40
2023-05-15T15:07:28.977Z,1.30
2023-05-15T15:09:55.761Z,1.57
2023-05-15T15:12:22.693Z,1.90
2023-05-15T15:14:49.558Z,2.00
2023-05-15T15:17:16.316Z,1.80
2023-05-15T15:19:43.310Z,5.70
2023-05-15T15:22:10.130Z,6.03
2023-05-15T15:24:36.935Z,5.57
2023-05-15T15:27:03.836Z,2.43
2023-05-15T15:29:30.653Z,2.73
2023-05-15T15:31:57.570Z,2.17
2023-05-15T15:34:24.497Z,1.70
2023-05-15T15:36:51.638Z,1.87
2023-05-15T15:39:18.557Z,4.03
2023-05-15T15:41:45.380Z,3.20
2023-05-15T15:44:12.312Z,3.10
2023-05-15T15:46:39.142Z,1.40
2023-05-15T15:49:06.695Z,1.50
2023-05-15T15:51:33.744Z,1.50
2023-05-15T15:54:00.636Z,1.87
2023-05-15T15:56:27.441Z,1.70
2023-05-15T15:58:54.739Z,2.60
2023-05-15T16:01:22.426Z,1.90
2023-05-15T16:03:49.479Z,5.00
2023-05-15T16:06:16.837Z,2.60
2023-05-15T16:08:43.566Z,1.13
2023-05-15T16:11:10.566Z,1.20
2023-05-15T16:13:38.714Z,1.07
2023-05-15T16:16:07.281Z,1.30
2023-05-15T16:18:34.583Z,1.30
2023-05-15T16:21:01.746Z,1.30
2023-05-15T16:23:28.612Z,1.53
2023-05-15T16:25:55.353Z,1.53
2023-05-15T16:28:22.203Z,1.50
2023-05-15T16:30:51.280Z,1.50
2023-05-15T16:33:18.555Z,1.60
2023-05-15T16:35:45.823Z,1.20
2023-05-15T16:38:13.538Z,1.40
2023-05-15T16:40:40.681Z,1.30
2023-05-15T16:43:07.535Z,1.30
2023-05-15T16:45:34.920Z,1.50
2023-05-15T16:48:01.837Z,1.47
2023-05-15T16:50:30.173Z,1.77
2023-05-15T16:52:57.022Z,1.97
2023-05-15T16:55:24.311Z,2.00
2023-05-15T16:57:51.343Z,2.40
2023-05-15T17:00:19.571Z,2.70
2023-05-15T17:02:46.604Z,2.70
2023-05-15T17:05:17.022Z,2.90
2023-05-15T17:07:44.543Z,2.70
2023-05-15T17:10:11.926Z,3.27
2023-05-15T17:12:39.137Z,2.80
2023-05-15T17:15:06.267Z,3.90
2023-05-15T17:17:33.155Z,3.77
2023-05-15T17:20:02.411Z,3.97
2023-05-15T17:22:29.983Z,4.43
2023-05-15T17:24:56.807Z,4.97
2023-05-15T17:27:23.847Z,3.67
2023-05-15T17:29:50.867Z,3.17
2023-05-15T17:32:18.197Z,3.50
2023-05-15T17:34:45.661Z,2.70
2023-05-15T17:37:12.393Z,4.00
2023-05-15T17:39:39.205Z,3.30
2023-05-15T17:42:06.063Z,3.83
2023-05-15T17:44:32.907Z,4.70
2023-05-15T17:46:59.877Z,4.53
2023-05-15T17:49:26.855Z,4.90
2023-05-15T17:51:53.942Z,4.53
2023-05-15T17:54:20.728Z,4.00
2023-05-15T17:56:48.142Z,4.00
2023-05-15T17:59:14.872Z,4.90
2023-05-15T18:01:41.843Z,4.40
2023-05-15T18:04:09.049Z,5.47
2023-05-15T18:06:36.226Z,5.10
2023-05-15T18:09:03.332Z,4.40
2023-05-15T18:11:30.581Z,3.37
2023-05-15T18:13:57.497Z,2.40
2023-05-15T18:16:24.467Z,2.53
2023-05-15T18:18:52.404Z,2.43
2023-05-15T18:21:19.372Z,2.67
2023-05-15T18:23:46.369Z,2.40
2023-05-15T18:26:13.131Z,2.60
2023-05-15T18:28:40.060Z,2.50
2023-05-15T18:31:06.859Z,2.53
2023-05-15T18:33:34.434Z,1.93
2023-05-15T18:36:01.527Z,2.40
2023-05-15T18:38:28.910Z,2.53
2023-05-15T18:40:55.675Z,2.40
2023-05-15T18:43:22.556Z,2.63
2023-05-15T18:45:49.338Z,2.80
2023-05-15T18:48:16.198Z,2.60
2023-05-15T18:50:42.999Z,2.43
2023-05-15T18:53:09.805Z,2.43
2023-05-15T18:55:37.137Z,3.33
2023-05-15T18:58:03.926Z,3.10
2023-05-15T19:03:00.687Z,4.30
2023-05-15T19:05:27.944Z,3.60
2023-05-15T19:07:54.773Z,4.83
2023-05-15T19:10:21.678Z,4.70
2023-05-15T19:12:48.507Z,3.17
2023-05-15T19:15:17.098Z,2.87
2023-05-15T19:17:43.956Z,3.13
2023-05-15T19:20:11.017Z,3.40
2023-05-15T19:22:37.753Z,3.60
2023-05-15T19:25:05.688Z,3.33
2023-05-15T19:27:33.321Z,2.83
2023-05-15T19:30:00.214Z,3.43
2023-05-15T19:32:27.526Z,3.10
2023-05-15T19:34:54.418Z,3.20
2023-05-15T19:37:21.206Z,3.37
2023-05-15T19:39:48.038Z,3.30
2023-05-15T19:42:14.856Z,3.40
2023-05-15T19:44:41.682Z,3.80
2023-05-15T19:47:09.868Z,3.80
2023-05-15T19:49:37.059Z,4.37
2023-05-15T19:52:04.017Z,4.30
2023-05-15T19:54:30.801Z,4.70
2023-05-15T19:56:58.828Z,4.27
2023-05-15T19:59:25.693Z,4.40
2023-05-15T20:01:52.489Z,4.10
2023-05-15T20:04:21.125Z,4.07
2023-05-15T20:06:47.911Z,4.00
2023-05-15T20:09:14.684Z,3.67
2023-05-15T20:11:41.573Z,3.67
2023-05-15T20:14:08.381Z,3.13
2023-05-15T20:16:35.337Z,3.30
2023-05-15T20:19:02.419Z,3.80
2023-05-15T20:21:29.999Z,3.90
2023-05-15T20:23:57.162Z,3.90
2023-05-15T20:26:24.110Z,4.00
2023-05-15T20:28:51.430Z,4.17
2023-05-15T20:31:18.462Z,4.07
2023-05-15T20:33:45.325Z,3.73
2023-05-15T20:36:12.619Z,3.40
2023-05-15T20:38:39.719Z,4.30
2023-05-15T20:41:06.606Z,4.17
2023-05-15T20:43:33.364Z,4.13
2023-05-15T20:46:00.443Z,3.47
2023-05-15T20:48:27.261Z,4.17
2023-05-15T20:50:54.179Z,4.03
2023-05-15T20:53:21.136Z,4.47
2023-05-15T20:55:48.709Z,3.40
2023-05-15T20:58:15.471Z,3.77
2023-05-15T21:00:42.914Z,3.93
2023-05-15T21:03:11.184Z,3.30
2023-05-15T21:05:38.008Z,3.87
2023-05-15T21:08:05.051Z,3.90
2023-05-15T21:10:31.841Z,3.27
2023-05-15T21:12:59.449Z,3.30
2023-05-15T21:15:26.955Z,3.57
2023-05-15T21:17:53.797Z,3.37
2023-05-15T21:20:20.688Z,4.43
2023-05-15T21:22:47.576Z,3.37
2023-05-15T21:25:16.046Z,3.60
2023-05-15T21:27:42.826Z,3.53
2023-05-15T21:30:09.868Z,3.87
2023-05-15T21:32:36.704Z,3.27
2023-05-15T21:35:03.856Z,3.40
2023-05-15T21:37:30.847Z,4.00
2023-05-15T21:39:57.854Z,3.70
2023-05-15T21:42:24.641Z,3.97
2023-05-15T21:44:51.518Z,3.37
2023-05-15T21:47:18.407Z,4.10
2023-05-15T21:49:45.243Z,3.60
2023-05-15T21:52:12.055Z,3.77
2023-05-15T21:54:38.923Z,4.67
2023-05-15T21:57:05.864Z,6.13
2023-05-15T21:59:32.616Z,4.80
2023-05-15T22:01:59.606Z,4.03
2023-05-15T22:04:26.388Z,4.50
2023-05-15T22:06:53.256Z,4.50
2023-05-15T22:09:20.036Z,4.90
2023-05-15T22:11:46.965Z,4.70
2023-05-15T22:14:13.797Z,4.17
2023-05-15T22:16:40.746Z,3.83
2023-05-15T22:19:10.109Z,4.13
2023-05-15T22:21:42.905Z,3.33
2023-05-15T22:24:09.812Z,3.77
2023-05-15T22:26:36.620Z,4.10
2023-05-15T22:29:03.935Z,3.83
2023-05-15T22:31:31.010Z,5.13
2023-05-15T22:33:57.961Z,4.67
2023-05-15T22:36:25.137Z,4.70
2023-05-15T22:38:51.994Z,4.70
2023-05-15T22:41:18.966Z,4.57
2023-05-15T22:43:45.799Z,4.03
2023-05-15T22:46:12.751Z,4.27
2023-05-15T22:48:39.504Z,4.77
2023-05-15T22:51:07.030Z,4.80
2023-05-15T22:53:33.825Z,5.10
2023-05-15T22:56:00.867Z,5.20
2023-05-15T22:58:27.600Z,5.37
2023-05-15T23:00:54.366Z,6.13
2023-05-15T23:03:21.578Z,4.90
2023-05-15T23:05:48.452Z,5.53
2023-05-15T23:08:15.328Z,5.23
2023-05-15T23:10:42.100Z,4.57
2023-05-15T23:13:08.971Z,4.30
2023-05-15T23:15:35.768Z,4.97
2023-05-15T23:18:02.729Z,4.53
2023-05-15T23:20:30.062Z,5.10
2023-05-15T23:22:56.944Z,4.33
2023-05-15T23:25:23.708Z,4.33
2023-05-15T23:27:50.547Z,4.83
2023-05-15T23:30:17.450Z,4.67
2023-05-15T23:32:44.266Z,4.80
2023-05-15T23:35:11.314Z,4.80
2023-05-15T23:37:38.763Z,4.67
2023-05-15T23:40:06.382Z,4.77
2023-05-15T23:42:33.210Z,4.80
2023-05-15T23:45:00.150Z,4.57
2023-05-15T23:47:26.953Z,5.20
2023-05-15T23:49:53.810Z,5.13
2023-05-15T23:52:20.561Z,5.10
2023-05-15T23:54:47.476Z,5.10
2023-05-15T23:57:14.364Z,4.77
2023-05-15T23:59:41.296Z,5.53
